createdAt,value
2022-09-25T00:00:48.563Z,0.96
2022-09-25T00:03:14.896Z,0.96
2022-09-25T00:05:41.336Z,1.00
2022-09-25T00:08:07.685Z,1.01
2022-09-25T00:10:34.027Z,0.85
2022-09-25T00:13:00.540Z,0.81
2022-09-25T00:15:29.208Z,0.95
2022-09-25T00:17:55.553Z,0.99
2022-09-25T00:20:21.940Z,0.97
2022-09-25T00:22:48.303Z,0.88
2022-09-25T00:25:14.652Z,0.90
2022-09-25T00:27:41.096Z,0.79
2022-09-25T00:30:07.439Z,0.87
2022-09-25T00:32:33.781Z,0.88
2022-09-25T00:35:00.171Z,0.84
2022-09-25T00:37:26.591Z,0.92
2022-09-25T00:39:52.967Z,0.95
2022-09-25T00:42:19.338Z,0.97
2022-09-25T00:44:45.668Z,0.89
2022-09-25T00:47:12.039Z,0.85
2022-09-25T00:49:38.561Z,0.93
2022-09-25T00:52:04.900Z,0.93
2022-09-25T00:54:31.237Z,0.92
2022-09-25T00:56:57.716Z,0.97
2022-09-25T00:59:24.044Z,0.80
2022-09-25T01:01:50.444Z,0.79
2022-09-25T01:04:16.820Z,0.85
2022-09-25T01:06:43.242Z,0.89
2022-09-25T01:09:09.581Z,1.03
2022-09-25T01:11:36.128Z,0.94
2022-09-25T01:14:02.455Z,0.87
2022-09-25T01:16:28.881Z,0.92
2022-09-25T01:18:55.330Z,0.88
2022-09-25T01:21:21.722Z,0.81
2022-09-25T01:23:48.046Z,0.90
2022-09-25T01:26:16.017Z,1.06
2022-09-25T01:28:42.534Z,0.78
2022-09-25T01:31:09.004Z,0.75
2022-09-25T01:33:35.426Z,0.81
2022-09-25T01:36:01.788Z,0.83
2022-09-25T01:38:28.162Z,0.89
2022-09-25T01:40:54.586Z,0.91
2022-09-25T01:43:20.999Z,0.90
2022-09-25T01:45:47.342Z,0.92
2022-09-25T01:48:13.752Z,0.90
2022-09-25T01:50:40.084Z,0.97
2022-09-25T01:53:06.424Z,0.96
2022-09-25T01:55:32.899Z,0.96
2022-09-25T01:57:59.256Z,0.94
2022-09-25T02:00:25.654Z,0.98
2022-09-25T02:02:52.175Z,0.87
2022-09-25T02:05:18.579Z,0.92
2022-09-25T02:07:44.918Z,0.92
2022-09-25T02:10:11.289Z,0.87
2022-09-25T02:12:37.630Z,0.96
2022-09-25T02:15:03.973Z,0.83
2022-09-25T02:17:30.358Z,0.86
2022-09-25T02:19:56.712Z,0.94
2022-09-25T02:22:23.052Z,0.85
2022-09-25T02:24:49.609Z,0.98
2022-09-25T02:27:15.965Z,0.95
2022-09-25T02:29:42.323Z,0.82
2022-09-25T02:32:08.684Z,0.96
2022-09-25T02:34:35.055Z,0.85
2022-09-25T02:37:01.411Z,0.84
2022-09-25T02:39:27.780Z,0.94
2022-09-25T02:41:54.115Z,0.94
2022-09-25T02:44:20.458Z,0.90
2022-09-25T02:46:46.979Z,0.92
2022-09-25T02:49:13.486Z,0.89
2022-09-25T02:51:39.820Z,0.84
2022-09-25T02:54:06.246Z,0.86
2022-09-25T02:56:32.621Z,0.85
2022-09-25T02:58:58.964Z,0.80
2022-09-25T03:01:25.483Z,0.89
2022-09-25T03:03:51.845Z,0.83
2022-09-25T03:06:18.175Z,0.96
2022-09-25T03:08:44.561Z,0.94
2022-09-25T03:11:10.920Z,0.93
2022-09-25T03:13:37.268Z,0.82
2022-09-25T03:16:03.712Z,0.90
2022-09-25T03:18:30.097Z,0.84
2022-09-25T03:20:56.457Z,0.80
2022-09-25T03:23:22.869Z,0.87
2022-09-25T03:25:50.287Z,0.99
2022-09-25T03:28:16.960Z,0.89
2022-09-25T03:30:43.433Z,0.98
2022-09-25T03:33:09.841Z,0.87
2022-09-25T03:35:36.190Z,0.96
2022-09-25T03:38:02.565Z,0.90
2022-09-25T03:40:28.977Z,0.87
2022-09-25T03:42:55.490Z,0.95
2022-09-25T03:45:22.005Z,0.97
2022-09-25T03:47:48.355Z,0.94
2022-09-25T03:50:14.756Z,0.84
2022-09-25T03:52:41.224Z,0.87
2022-09-25T03:55:07.566Z,0.92
2022-09-25T03:57:33.899Z,0.82
2022-09-25T04:00:00.310Z,0.99
2022-09-25T04:02:26.729Z,0.90
2022-09-25T04:04:53.120Z,0.99
2022-09-25T04:07:19.674Z,0.85
2022-09-25T04:09:46.008Z,0.87
2022-09-25T04:12:12.377Z,0.85
2022-09-25T04:14:38.734Z,0.83
2022-09-25T04:17:05.073Z,0.74
2022-09-25T04:19:31.434Z,0.79
2022-09-25T04:21:57.789Z,0.71
2022-09-25T04:24:24.122Z,0.77
2022-09-25T04:26:50.443Z,0.84
2022-09-25T04:29:16.857Z,0.85
2022-09-25T04:31:43.258Z,0.77
2022-09-25T04:34:09.723Z,0.76
2022-09-25T04:36:36.096Z,0.82
2022-09-25T04:39:02.452Z,0.94
2022-09-25T04:41:28.858Z,0.83
2022-09-25T04:43:55.204Z,0.81
2022-09-25T04:46:22.810Z,0.78
2022-09-25T04:48:49.421Z,0.87
2022-09-25T04:51:15.797Z,0.88
2022-09-25T04:53:42.136Z,0.86
2022-09-25T04:56:13.919Z,0.85
2022-09-25T04:58:41.743Z,0.75
2022-09-25T05:01:08.178Z,0.81
2022-09-25T05:03:34.674Z,1.07
2022-09-25T05:06:01.189Z,0.94
2022-09-25T05:08:27.516Z,0.80
2022-09-25T05:10:53.861Z,0.79
2022-09-25T05:13:20.243Z,0.87
2022-09-25T05:15:46.613Z,0.82
2022-09-25T05:18:12.983Z,0.91
2022-09-25T05:20:39.351Z,0.84
2022-09-25T05:23:05.698Z,0.95
2022-09-25T05:25:32.038Z,1.00
2022-09-25T05:27:58.427Z,0.82
2022-09-25T05:30:24.835Z,0.86
2022-09-25T05:32:51.245Z,0.81
2022-09-25T05:35:17.588Z,0.73
2022-09-25T05:37:43.933Z,0.88
2022-09-25T05:40:10.357Z,0.85
2022-09-25T05:42:36.854Z,0.79
2022-09-25T05:45:07.370Z,0.90
2022-09-25T05:47:34.113Z,0.75
2022-09-25T05:50:00.511Z,0.82
2022-09-25T05:52:26.849Z,0.75
2022-09-25T05:54:53.218Z,0.82
2022-09-25T05:57:19.680Z,0.84
2022-09-25T05:59:46.020Z,0.80
2022-09-25T06:02:12.412Z,0.80
2022-09-25T06:04:38.955Z,0.83
2022-09-25T06:07:05.306Z,0.86
2022-09-25T06:09:31.734Z,0.86
2022-09-25T06:11:58.272Z,0.69
2022-09-25T06:14:24.624Z,0.69
2022-09-25T06:16:50.952Z,0.83
2022-09-25T06:19:17.432Z,0.85
2022-09-25T06:21:43.802Z,0.77
2022-09-25T06:24:10.209Z,0.80
2022-09-25T06:26:36.618Z,0.96
2022-09-25T06:29:04.612Z,0.88
2022-09-25T06:31:31.063Z,0.78
2022-09-25T06:33:57.589Z,0.74
2022-09-25T06:36:23.946Z,0.79
2022-09-25T06:38:50.302Z,0.91
2022-09-25T06:41:16.682Z,0.65
2022-09-25T06:43:43.024Z,0.74
2022-09-25T06:46:09.406Z,0.79
2022-09-25T06:48:35.886Z,0.87
2022-09-25T06:51:02.241Z,0.89
2022-09-25T06:53:28.584Z,0.88
2022-09-25T06:55:55.037Z,0.96
2022-09-25T06:58:21.406Z,0.80
2022-09-25T07:00:47.775Z,1.05
2022-09-25T07:03:14.136Z,0.84
2022-09-25T07:05:40.469Z,0.98
2022-09-25T07:08:06.840Z,0.94
2022-09-25T07:10:33.210Z,0.88
2022-09-25T07:12:59.556Z,0.86
2022-09-25T07:15:25.893Z,1.00
2022-09-25T07:17:52.372Z,0.99
2022-09-25T07:20:18.749Z,1.03
2022-09-25T07:22:45.145Z,0.93
2022-09-25T07:25:11.529Z,0.90
2022-09-25T07:27:37.968Z,0.95
2022-09-25T07:30:04.338Z,0.87
2022-09-25T07:32:30.845Z,0.84
2022-09-25T07:34:58.402Z,0.78
2022-09-25T07:37:24.824Z,0.89
2022-09-25T07:39:51.304Z,0.97
2022-09-25T07:42:17.658Z,0.90
2022-09-25T07:44:48.157Z,0.74
2022-09-25T07:47:15.241Z,0.91
2022-09-25T07:49:41.573Z,0.96
2022-09-25T07:52:07.904Z,0.87
2022-09-25T07:54:34.269Z,0.81
2022-09-25T07:57:00.611Z,0.90
2022-09-25T07:59:26.959Z,0.95
2022-09-25T08:01:54.324Z,0.90
2022-09-25T08:04:20.856Z,0.94
2022-09-25T08:06:47.230Z,0.87
2022-09-25T08:09:13.648Z,1.10
2022-09-25T08:11:40.028Z,0.89
2022-09-25T08:14:06.394Z,1.04
2022-09-25T08:16:32.850Z,0.88
2022-09-25T08:18:59.178Z,0.87
2022-09-25T08:21:25.532Z,0.88
2022-09-25T08:23:52.120Z,0.78
2022-09-25T08:26:18.491Z,0.89
2022-09-25T08:28:44.840Z,0.92
2022-09-25T08:31:11.360Z,1.05
2022-09-25T08:33:37.782Z,0.84
2022-09-25T08:36:04.125Z,0.85
2022-09-25T08:38:30.519Z,0.91
2022-09-25T08:40:56.959Z,0.84
2022-09-25T08:43:23.345Z,0.78
2022-09-25T08:45:49.743Z,0.72
2022-09-25T08:48:16.175Z,0.79
2022-09-25T08:50:42.507Z,0.70
2022-09-25T08:53:08.975Z,0.74
2022-09-25T08:55:35.351Z,0.87
2022-09-25T08:58:01.719Z,0.81
2022-09-25T09:00:28.114Z,0.69
2022-09-25T09:02:54.552Z,0.77
2022-09-25T09:05:20.977Z,0.79
2022-09-25T09:07:47.452Z,0.83
2022-09-25T09:10:13.812Z,0.76
2022-09-25T09:12:40.135Z,0.87
2022-09-25T09:15:06.501Z,0.72
2022-09-25T09:17:32.874Z,0.76
2022-09-25T09:19:59.229Z,0.77
2022-09-25T09:22:25.724Z,0.69
2022-09-25T09:24:52.061Z,0.87
2022-09-25T09:27:18.410Z,0.75
2022-09-25T09:29:44.898Z,0.81
2022-09-25T09:32:11.241Z,0.80
2022-09-25T09:35:04.227Z,0.89
2022-09-25T09:37:24.131Z,0.79
2022-09-25T09:39:50.600Z,0.73
2022-09-25T09:42:16.939Z,0.77
2022-09-25T09:44:43.374Z,0.77
2022-09-25T09:47:09.712Z,0.66
2022-09-25T09:49:36.069Z,0.62
2022-09-25T09:52:02.462Z,0.69
2022-09-25T09:54:28.817Z,0.81
2022-09-25T09:56:55.164Z,0.87
2022-09-25T09:59:21.563Z,0.74
2022-09-25T10:01:48.091Z,0.85
2022-09-25T10:04:14.594Z,0.75
2022-09-25T10:06:41.090Z,0.67
2022-09-25T10:09:07.777Z,0.81
2022-09-25T10:11:34.127Z,0.76
2022-09-25T10:14:00.483Z,0.68
2022-09-25T10:16:26.818Z,0.67
2022-09-25T10:18:53.164Z,0.74
2022-09-25T10:21:19.570Z,0.63
2022-09-25T10:23:45.945Z,0.62
2022-09-25T10:26:12.436Z,0.63
2022-09-25T10:28:38.977Z,0.68
2022-09-25T10:31:05.380Z,0.59
2022-09-25T10:33:31.785Z,0.68
2022-09-25T10:35:58.167Z,0.62
2022-09-25T10:38:24.509Z,0.56
2022-09-25T10:40:50.963Z,0.66
2022-09-25T10:43:17.478Z,0.59
2022-09-25T10:45:43.861Z,0.59
2022-09-25T10:48:10.200Z,0.53
2022-09-25T10:50:36.599Z,0.71
2022-09-25T10:53:03.009Z,0.68
2022-09-25T10:55:29.367Z,0.65
2022-09-25T10:57:55.769Z,0.69
2022-09-25T11:00:22.111Z,0.62
2022-09-25T11:02:48.567Z,0.59
2022-09-25T11:05:15.117Z,0.63
2022-09-25T11:07:41.468Z,0.57
2022-09-25T11:10:07.796Z,0.59
2022-09-25T11:12:34.164Z,0.66
2022-09-25T11:15:00.516Z,0.59
2022-09-25T11:17:26.871Z,0.58
2022-09-25T11:19:53.363Z,0.65
2022-09-25T11:22:19.714Z,0.57
2022-09-25T11:24:46.069Z,0.67
2022-09-25T11:27:12.464Z,0.59
2022-09-25T11:29:38.790Z,0.69
2022-09-25T11:32:05.286Z,0.59
2022-09-25T11:34:31.663Z,0.62
2022-09-25T11:36:58.025Z,0.66
2022-09-25T11:39:24.439Z,0.62
2022-09-25T11:41:50.979Z,0.68
2022-09-25T11:44:17.366Z,0.71
2022-09-25T11:46:43.798Z,0.62
2022-09-25T11:49:12.380Z,0.55
2022-09-25T11:51:38.926Z,0.70
2022-09-25T11:54:25.196Z,0.74
2022-09-25T11:56:51.611Z,0.61
2022-09-25T11:59:17.984Z,0.58
2022-09-25T12:01:44.549Z,0.67
2022-09-25T12:04:10.984Z,0.61
2022-09-25T12:06:37.436Z,0.59
2022-09-25T12:09:03.778Z,0.60
2022-09-25T12:11:30.237Z,0.58
2022-09-25T12:13:56.585Z,0.50
2022-09-25T12:16:22.978Z,0.66
2022-09-25T12:18:49.390Z,0.62
2022-09-25T12:21:15.744Z,0.58
2022-09-25T12:23:42.082Z,0.57
2022-09-25T12:26:08.457Z,0.62
2022-09-25T12:28:34.936Z,0.56
2022-09-25T12:31:05.234Z,0.54
2022-09-25T12:33:32.047Z,0.47
2022-09-25T12:35:58.404Z,0.56
2022-09-25T12:38:24.785Z,0.63
2022-09-25T12:40:51.244Z,0.53
2022-09-25T12:43:17.656Z,0.52
2022-09-25T12:45:44.081Z,0.62
2022-09-25T12:48:10.492Z,0.56
2022-09-25T12:50:36.845Z,0.61
2022-09-25T12:53:03.250Z,0.57
2022-09-25T12:55:29.723Z,0.51
2022-09-25T12:57:56.061Z,0.57
2022-09-25T13:00:22.406Z,0.52
2022-09-25T13:02:48.762Z,0.60
2022-09-25T13:05:19.393Z,0.65
2022-09-25T13:07:47.811Z,0.54
2022-09-25T13:10:14.216Z,0.51
2022-09-25T13:12:40.563Z,0.44
2022-09-25T13:15:06.932Z,0.54
2022-09-25T13:17:33.365Z,0.53
2022-09-25T13:19:59.703Z,0.55
2022-09-25T13:22:26.030Z,0.58
2022-09-25T13:24:52.542Z,0.52
2022-09-25T13:27:18.950Z,0.56
2022-09-25T13:29:45.375Z,0.51
2022-09-25T13:32:11.847Z,0.70
2022-09-25T13:34:38.197Z,0.52
2022-09-25T13:37:04.589Z,0.59
2022-09-25T13:39:31.134Z,0.50
2022-09-25T13:41:57.485Z,0.56
2022-09-25T13:44:23.904Z,0.50
2022-09-25T13:46:50.464Z,0.48
2022-09-25T13:49:16.825Z,0.47
2022-09-25T13:51:43.225Z,0.57
2022-09-25T13:54:09.599Z,0.60
2022-09-25T13:56:35.937Z,0.54
2022-09-25T13:59:02.284Z,0.60
2022-09-25T14:01:28.705Z,0.51
2022-09-25T14:03:55.178Z,0.53
2022-09-25T14:06:21.547Z,0.53
2022-09-25T14:08:48.042Z,0.57
2022-09-25T14:11:14.439Z,0.62
2022-09-25T14:13:40.777Z,0.67
2022-09-25T14:16:07.219Z,0.62
2022-09-25T14:18:33.612Z,0.59
2022-09-25T14:21:00.042Z,0.51
2022-09-25T14:23:26.419Z,0.58
2022-09-25T14:25:57.552Z,0.55
2022-09-25T14:28:24.555Z,0.63
2022-09-25T14:30:50.926Z,0.55
2022-09-25T14:33:17.257Z,0.62
2022-09-25T14:35:43.629Z,0.55
2022-09-25T14:38:10.013Z,0.66
2022-09-25T14:40:36.413Z,0.68
2022-09-25T14:43:02.784Z,0.72
2022-09-25T14:45:29.234Z,0.62
2022-09-25T14:47:55.660Z,0.64
2022-09-25T14:50:22.056Z,0.51
2022-09-25T14:52:48.449Z,0.63
2022-09-25T14:55:14.813Z,0.70
2022-09-25T14:57:41.165Z,0.62
2022-09-25T15:00:08.747Z,0.62
2022-09-25T15:02:35.170Z,0.60
2022-09-25T15:05:01.744Z,0.71
2022-09-25T15:07:28.222Z,0.63
2022-09-25T15:09:54.566Z,0.65
2022-09-25T15:12:21.009Z,0.58
2022-09-25T15:14:47.391Z,0.57
2022-09-25T15:17:13.724Z,0.63
2022-09-25T15:19:40.074Z,0.61
2022-09-25T15:22:06.452Z,0.61
2022-09-25T15:24:32.798Z,0.66
2022-09-25T15:26:59.140Z,0.61
2022-09-25T15:29:25.514Z,0.67
2022-09-25T15:31:51.947Z,0.73
2022-09-25T15:34:18.385Z,0.64
2022-09-25T15:36:44.841Z,0.63
2022-09-25T15:39:11.280Z,0.72
2022-09-25T15:41:37.690Z,0.69
2022-09-25T15:44:07.703Z,0.70
2022-09-25T15:46:34.272Z,0.63
2022-09-25T15:49:00.937Z,0.64
2022-09-25T15:51:27.333Z,0.62
2022-09-25T15:53:53.733Z,0.63
2022-09-25T15:56:20.126Z,0.52
2022-09-25T15:58:46.596Z,0.51
2022-09-25T16:01:12.994Z,0.69
2022-09-25T16:03:39.423Z,0.61
2022-09-25T16:06:05.823Z,0.54
2022-09-25T16:08:32.256Z,0.68
2022-09-25T16:10:58.625Z,0.61
2022-09-25T16:13:25.033Z,0.51
2022-09-25T16:15:51.428Z,0.66
2022-09-25T16:18:17.798Z,0.61
2022-09-25T16:20:44.355Z,0.71
2022-09-25T16:23:10.708Z,0.59
2022-09-25T16:25:37.093Z,0.51
2022-09-25T16:28:03.553Z,0.56
2022-09-25T16:30:29.914Z,0.53
2022-09-25T16:32:56.274Z,0.49
2022-09-25T16:35:22.651Z,0.57
2022-09-25T16:37:49.254Z,0.54
2022-09-25T16:40:15.856Z,0.63
2022-09-25T16:42:42.437Z,0.40
2022-09-25T16:45:08.773Z,0.49
2022-09-25T16:47:35.171Z,0.62
2022-09-25T16:50:01.552Z,0.49
2022-09-25T16:52:28.082Z,0.48
2022-09-25T16:54:54.526Z,0.50
2022-09-25T16:57:20.915Z,0.43
2022-09-25T16:59:48.741Z,0.62
2022-09-25T17:02:15.225Z,0.51
2022-09-25T17:04:41.742Z,0.47
2022-09-25T17:07:08.084Z,0.52
2022-09-25T17:09:34.431Z,0.48
2022-09-25T17:12:00.921Z,0.53
2022-09-25T17:14:27.266Z,0.51
2022-09-25T17:16:53.634Z,0.40
2022-09-25T17:19:20.006Z,0.61
2022-09-25T17:21:46.419Z,0.48
2022-09-25T17:24:14.166Z,0.44
2022-09-25T17:26:40.680Z,0.56
2022-09-25T17:29:07.416Z,0.57
2022-09-25T17:31:33.860Z,0.51
2022-09-25T17:34:00.308Z,0.55
2022-09-25T17:36:26.672Z,0.39
2022-09-25T17:38:53.086Z,0.48
2022-09-25T17:41:19.567Z,0.43
2022-09-25T17:43:45.930Z,0.47
2022-09-25T17:46:12.362Z,0.48
2022-09-25T17:48:38.785Z,0.53
2022-09-25T17:51:05.181Z,0.55
2022-09-25T17:53:31.547Z,0.49
2022-09-25T17:55:58.034Z,0.58
2022-09-25T17:58:24.360Z,0.50
2022-09-25T18:00:50.708Z,0.55
2022-09-25T18:03:17.138Z,0.54
2022-09-25T18:05:43.510Z,0.49
2022-09-25T18:08:09.847Z,0.46
2022-09-25T18:10:36.229Z,0.61
2022-09-25T18:13:02.577Z,0.53
2022-09-25T18:15:28.958Z,0.54
2022-09-25T18:17:55.642Z,0.49
2022-09-25T18:20:22.036Z,0.47
2022-09-25T18:22:48.376Z,0.50
2022-09-25T18:25:14.798Z,0.50
2022-09-25T18:27:41.133Z,0.54
2022-09-25T18:30:07.478Z,0.58
2022-09-25T18:32:33.911Z,0.56
2022-09-25T18:35:00.274Z,0.54
2022-09-25T18:37:26.632Z,0.49
2022-09-25T18:39:53.111Z,0.58
2022-09-25T18:42:19.508Z,0.48
2022-09-25T18:44:45.904Z,0.54
2022-09-25T18:47:12.442Z,0.49
2022-09-25T18:49:38.929Z,0.58
2022-09-25T18:52:05.275Z,0.52
2022-09-25T18:54:31.671Z,0.52
2022-09-25T18:56:58.020Z,0.50
2022-09-25T18:59:24.363Z,0.54
2022-09-25T19:01:50.846Z,0.54
2022-09-25T19:04:17.268Z,0.56
2022-09-25T19:06:43.607Z,0.50
2022-09-25T19:09:15.478Z,0.51
2022-09-25T19:11:42.915Z,0.63
2022-09-25T19:14:09.248Z,0.52
2022-09-25T19:16:38.270Z,0.66
2022-09-25T19:19:07.414Z,0.47
2022-09-25T19:21:33.773Z,0.47
2022-09-25T19:24:00.162Z,0.58
2022-09-25T19:26:26.504Z,0.51
2022-09-25T19:28:52.852Z,0.60
2022-09-25T19:31:19.307Z,0.48
2022-09-25T19:33:45.789Z,0.50
2022-09-25T19:36:12.133Z,0.42
2022-09-25T19:38:38.629Z,0.50
2022-09-25T19:41:05.070Z,0.55
2022-09-25T19:43:31.548Z,0.59
2022-09-25T19:45:57.949Z,0.49
2022-09-25T19:48:24.330Z,0.46
2022-09-25T19:50:50.697Z,0.56
2022-09-25T19:53:17.072Z,0.49
2022-09-25T19:55:43.417Z,0.46
2022-09-25T19:58:09.768Z,0.44
2022-09-25T20:00:36.158Z,0.50
2022-09-25T20:03:02.673Z,0.55
2022-09-25T20:05:29.026Z,0.53
2022-09-25T20:07:55.563Z,0.50
2022-09-25T20:10:21.913Z,0.44
2022-09-25T20:12:48.260Z,0.63
2022-09-25T20:15:14.771Z,0.55
2022-09-25T20:17:41.107Z,0.52
2022-09-25T20:20:07.489Z,0.43
2022-09-25T20:22:33.877Z,0.45
2022-09-25T20:25:00.287Z,0.49
2022-09-25T20:27:26.625Z,0.48
2022-09-25T20:29:53.013Z,0.54
2022-09-25T20:32:19.377Z,0.48
2022-09-25T20:34:45.808Z,0.54
2022-09-25T20:37:12.287Z,0.55
2022-09-25T20:39:38.660Z,0.52
2022-09-25T20:42:05.007Z,0.59
2022-09-25T20:44:31.484Z,0.49
2022-09-25T20:46:57.861Z,0.51
2022-09-25T20:49:24.216Z,0.56
2022-09-25T20:51:50.601Z,0.50
2022-09-25T20:54:16.945Z,0.45
2022-09-25T20:56:43.310Z,0.44
2022-09-25T20:59:09.745Z,0.51
2022-09-25T21:01:36.134Z,0.47
2022-09-25T21:04:02.522Z,0.53
2022-09-25T21:06:28.954Z,0.44
2022-09-25T21:08:55.297Z,0.47
2022-09-25T21:11:21.648Z,0.59
2022-09-25T21:13:48.061Z,0.50
2022-09-25T21:16:14.435Z,0.54
2022-09-25T21:18:40.852Z,0.37
2022-09-25T21:21:07.251Z,0.38
2022-09-25T21:23:33.631Z,0.54
2022-09-25T21:26:00.130Z,0.43
2022-09-25T21:28:26.496Z,0.50
2022-09-25T21:30:53.074Z,0.45
2022-09-25T21:33:20.600Z,0.46
2022-09-25T21:35:47.125Z,0.41
2022-09-25T21:38:13.510Z,0.47
2022-09-25T21:40:39.896Z,0.37
2022-09-25T21:43:06.312Z,0.48
2022-09-25T21:45:32.673Z,0.47
2022-09-25T21:47:59.082Z,0.52
2022-09-25T21:50:25.652Z,0.57
2022-09-25T21:52:52.004Z,0.56
2022-09-25T21:55:18.332Z,0.44
2022-09-25T21:57:44.703Z,0.43
2022-09-25T22:00:11.070Z,0.49
2022-09-25T22:02:37.450Z,0.46
2022-09-25T22:05:03.920Z,0.47
2022-09-25T22:07:30.293Z,0.50
2022-09-25T22:09:56.629Z,0.49
2022-09-25T22:12:23.135Z,0.43
2022-09-25T22:14:49.498Z,0.44
2022-09-25T22:17:15.904Z,0.46
2022-09-25T22:19:42.290Z,0.50
2022-09-25T22:22:08.817Z,0.43
2022-09-25T22:24:35.155Z,0.47
2022-09-25T22:27:01.625Z,0.44
2022-09-25T22:29:27.982Z,0.52
2022-09-25T22:31:54.336Z,0.50
2022-09-25T22:34:20.706Z,0.41
2022-09-25T22:36:47.045Z,0.43
2022-09-25T22:39:13.500Z,0.41
2022-09-25T22:41:39.996Z,0.44
2022-09-25T22:44:06.344Z,0.48
2022-09-25T22:46:32.739Z,0.45
2022-09-25T22:48:59.201Z,0.45
2022-09-25T22:51:25.557Z,0.48
2022-09-25T22:53:51.925Z,0.49
2022-09-25T22:56:18.293Z,0.46
2022-09-25T22:58:44.640Z,0.40
2022-09-25T23:01:11.065Z,0.47
2022-09-25T23:03:37.490Z,0.44
2022-09-25T23:06:03.853Z,0.52
2022-09-25T23:08:30.204Z,0.50
2022-09-25T23:11:07.091Z,0.38
2022-09-25T23:13:34.191Z,0.45
2022-09-25T23:16:00.715Z,0.55
2022-09-25T23:18:27.056Z,0.46
2022-09-25T23:20:53.407Z,0.37
2022-09-25T23:23:19.758Z,0.45
2022-09-25T23:25:46.109Z,0.38
2022-09-25T23:28:12.467Z,0.46
2022-09-25T23:30:38.913Z,0.37
2022-09-25T23:33:05.296Z,0.44
2022-09-25T23:35:31.678Z,0.40
2022-09-25T23:37:58.153Z,0.43
2022-09-25T23:40:24.547Z,0.35
2022-09-25T23:42:50.923Z,0.35
2022-09-25T23:45:17.275Z,0.39
2022-09-25T23:47:43.624Z,0.42
2022-09-25T23:50:09.985Z,0.54
2022-09-25T23:52:36.356Z,0.42
2022-09-25T23:55:02.707Z,0.51
2022-09-25T23:57:29.040Z,0.47
2022-09-25T23:59:55.426Z,0.44
